Time;durP1;ratioP1;P1;durP2;ratioP2;P2;SDS_P1;SDS_P2;PMS_P1;PMS_P2;Temp;Humidity;BMP_temperature;BMP_pressure;BME280_temperature;BME280_humidity;BME280_pressure;Samples;Min_cycle;Max_cycle;Signal;HPM_P1;HPM_P2
2022/04/14 00:00:13;;;;;;;29.17;18.30;;;14.10;99.90;;;-146.41;100.00;57768.22;5000118;28;20137;-70
2022/04/14 00:02:40;;;;;;;29.23;19.33;;;14.10;99.90;;;-146.41;100.00;57768.22;5002536;28;20058;-69
2022/04/14 00:05:08;;;;;;;24.38;17.35;;;14.00;99.90;;;-146.41;100.00;57768.22;4998974;28;20078;-70
2022/04/14 00:07:36;;;;;;;24.95;16.17;;;14.00;99.90;;;-146.41;100.00;57768.22;5008787;28;20141;-70
2022/04/14 00:10:05;;;;;;;21.35;13.77;;;13.90;99.90;;;-146.41;100.00;57768.22;4969534;28;20133;-69
2022/04/14 00:12:33;;;;;;;22.80;14.57;;;13.80;99.90;;;-146.41;100.00;57768.22;4998149;28;20160;-70
2022/04/14 00:15:01;;;;;;;27.60;14.55;;;13.80;99.90;;;-146.41;100.00;57768.22;4995119;28;20169;-69
2022/04/14 00:17:29;;;;;;;21.50;12.77;;;13.80;99.90;;;-146.41;100.00;57768.22;4997601;28;20100;-70
2022/04/14 00:19:56;;;;;;;20.45;12.00;;;13.70;99.90;;;-146.41;100.00;57768.22;4997026;28;20041;-70
2022/04/14 00:22:23;;;;;;;22.67;13.48;;;13.70;99.90;;;-146.41;100.00;57768.22;5003595;28;20049;-70
2022/04/14 00:24:50;;;;;;;26.10;13.85;;;13.70;99.90;;;-146.41;100.00;57768.22;4995385;28;20038;-69
2022/04/14 00:27:19;;;;;;;25.45;15.90;;;13.60;99.90;;;-146.41;100.00;57768.22;4996655;28;20662;-69
2022/04/14 00:29:49;;;;;;;25.40;16.88;;;13.70;99.90;;;-146.41;100.00;57768.22;4998625;28;20104;-69
2022/04/14 00:32:16;;;;;;;25.58;17.92;;;13.60;99.90;;;-146.41;100.00;57768.22;4993916;28;21942;-70
2022/04/14 00:34:43;;;;;;;32.45;18.48;;;13.60;99.90;;;-146.41;100.00;57768.22;4999314;28;20077;-70
2022/04/14 00:37:10;;;;;;;31.48;20.55;;;13.50;99.90;;;-146.41;100.00;57768.22;4999772;28;20062;-70
2022/04/14 00:39:38;;;;;;;24.05;18.23;;;13.60;99.90;;;-146.41;100.00;57768.22;4999628;28;20616;-70
2022/04/14 00:42:12;;;;;;;24.23;17.15;;;13.60;99.90;;;-146.41;100.00;57768.22;4996692;28;20046;-69
2022/04/14 00:44:40;;;;;;;32.45;22.02;;;13.60;99.90;;;-146.41;100.00;57768.22;4991004;28;20069;-70
2022/04/14 00:47:08;;;;;;;29.98;20.58;;;13.70;99.90;;;-146.41;100.00;57768.22;4989702;28;20113;-71
2022/04/14 00:49:36;;;;;;;32.85;24.02;;;13.70;99.90;;;-146.41;100.00;57768.22;4997345;28;20065;-70
2022/04/14 00:52:04;;;;;;;33.33;24.10;;;13.70;99.90;;;-146.41;100.00;57768.22;5000446;28;20483;-69
2022/04/14 00:54:31;;;;;;;35.20;26.23;;;13.70;99.90;;;-146.41;100.00;57768.22;4998243;28;20053;-69
2022/04/14 00:57:03;;;;;;;31.95;20.40;;;13.80;99.90;;;-146.41;100.00;57768.22;4995944;28;20127;-69
2022/04/14 00:59:30;;;;;;;31.48;22.27;;;13.70;99.90;;;-146.41;100.00;57768.22;4999236;28;20439;-69
2022/04/14 01:01:58;;;;;;;33.50;23.02;;;13.70;99.90;;;-146.41;100.00;57768.22;4998540;28;20046;-69
2022/04/14 01:04:27;;;;;;;33.65;25.40;;;13.70;99.90;;;-146.41;100.00;57768.22;4998132;28;20145;-69
2022/04/14 01:06:55;;;;;;;34.55;26.77;;;13.70;99.90;;;-146.41;100.00;57768.22;4997356;28;20089;-69
2022/04/14 01:09:26;;;;;;;36.78;25.80;;;13.70;99.90;;;-146.41;100.00;57768.22;4996282;28;20121;-69
2022/04/14 01:11:54;;;;;;;33.17;24.65;;;13.70;99.90;;;-146.41;100.00;57768.22;4991830;28;20092;-69
2022/04/14 01:14:29;;;;;;;34.38;26.48;;;13.70;99.90;;;-146.41;100.00;57768.22;4997070;28;20085;-69
2022/04/14 01:17:01;;;;;;;40.95;29.88;;;13.70;99.90;;;-146.41;100.00;57768.22;4984455;28;20133;-68
2022/04/14 01:19:29;;;;;;;48.80;29.75;;;13.70;99.90;;;-146.41;100.00;57768.22;4997005;28;20042;-68
2022/04/14 01:22:18;;;;;;;54.92;31.50;;;13.80;99.90;;;-146.41;100.00;57768.22;4997417;28;20661;-69
2022/04/14 01:24:46;;;;;;;43.38;31.23;;;13.70;99.90;;;-146.41;100.00;57768.22;5003696;28;20080;-69
2022/04/14 01:27:13;;;;;;;45.45;31.33;;;13.80;99.90;;;-146.41;100.00;57768.22;4998927;28;20089;-70
2022/04/14 01:29:40;;;;;;;45.13;33.45;;;13.80;99.90;;;-146.41;100.00;57768.22;5000685;28;20096;-69
2022/04/14 01:32:09;;;;;;;45.20;33.63;;;13.80;99.90;;;-146.41;100.00;57768.22;5004636;28;20054;-69
2022/04/14 01:34:36;;;;;;;42.60;30.73;;;13.80;99.90;;;-146.41;100.00;57768.22;5000006;28;20057;-69
2022/04/14 01:37:03;;;;;;;41.45;31.52;;;13.80;99.90;;;-146.41;100.00;57768.22;4999461;28;20073;-69
2022/04/14 01:39:30;;;;;;;39.25;31.30;;;13.80;99.90;;;-146.41;100.00;57768.22;4998746;28;20080;-69
2022/04/14 01:41:58;;;;;;;42.85;32.33;;;13.80;99.90;;;-146.41;100.00;57768.22;5004208;28;20069;-69
2022/04/14 01:44:24;;;;;;;46.70;32.90;;;13.80;99.90;;;-146.41;100.00;57768.22;4998689;28;20084;-68
2022/04/14 01:46:51;;;;;;;41.03;32.35;;;13.80;99.90;;;-146.41;100.00;57768.22;5004836;28;20478;-68
2022/04/14 01:49:19;;;;;;;62.53;34.72;;;13.70;99.90;;;-146.41;100.00;57768.22;5001817;28;20496;-69
2022/04/14 01:51:48;;;;;;;50.72;34.60;;;13.70;99.90;;;-146.41;100.00;57768.22;5000210;28;20133;-69
2022/04/14 01:54:16;;;;;;;44.33;32.92;;;13.80;99.90;;;-146.41;100.00;57768.22;5000595;28;20130;-69
2022/04/14 01:56:44;;;;;;;44.60;34.67;;;13.80;99.90;;;-146.41;100.00;57768.22;5001412;28;20404;-69
2022/04/14 01:59:12;;;;;;;46.55;33.42;;;13.70;99.90;;;-146.41;100.00;57768.22;5005790;28;20069;-69
2022/04/14 02:01:39;;;;;;;46.72;33.40;;;13.80;99.90;;;-146.41;100.00;57768.22;5000724;28;20080;-69
2022/04/14 02:04:07;;;;;;;41.53;32.70;;;13.80;99.90;;;-146.41;100.00;57768.22;4998265;28;20124;-69
2022/04/14 02:06:34;;;;;;;48.92;33.78;;;13.80;99.90;;;-146.41;100.00;57768.22;4997415;28;20062;-70
2022/04/14 02:09:03;;;;;;;51.33;35.67;;;13.80;99.90;;;-146.41;100.00;57768.22;5005482;28;20084;-69
2022/04/14 02:11:29;;;;;;;47.55;33.38;;;13.80;99.90;;;-146.41;100.00;57768.22;5003205;28;20658;-70
2022/04/14 02:13:57;;;;;;;47.92;33.97;;;13.80;99.90;;;-146.41;100.00;57768.22;5002024;28;20128;-69
2022/04/14 02:16:24;;;;;;;46.08;34.00;;;13.80;99.90;;;-146.41;100.00;57768.22;4999033;28;20104;-69
2022/04/14 02:18:51;;;;;;;44.65;33.28;;;13.80;99.90;;;-146.41;100.00;57768.22;4980496;28;20057;-68
2022/04/14 02:21:18;;;;;;;43.47;33.63;;;13.80;99.90;;;-146.41;100.00;57768.22;4998369;28;20559;-69
2022/04/14 02:23:45;;;;;;;44.60;32.10;;;13.80;99.90;;;-146.41;100.00;57768.22;4998440;28;20070;-69
2022/04/14 02:26:13;;;;;;;48.00;35.55;;;13.80;99.90;;;-146.41;100.00;57768.22;4996715;28;20069;-68
2022/04/14 02:28:40;;;;;;;49.92;33.65;;;13.80;99.90;;;-146.41;100.00;57768.22;5002456;28;20127;-69
2022/04/14 02:31:07;;;;;;;43.95;33.10;;;13.80;99.90;;;-146.41;100.00;57768.22;4999656;28;20042;-70
2022/04/14 02:33:34;;;;;;;50.00;33.65;;;13.80;99.90;;;-146.41;100.00;57768.22;4984834;28;20078;-68
2022/04/14 02:36:03;;;;;;;43.50;33.60;;;13.70;99.90;;;-146.41;100.00;57768.22;4998873;28;20058;-68
2022/04/14 02:38:30;;;;;;;46.25;34.50;;;13.70;99.90;;;-146.41;100.00;57768.22;5001636;28;20133;-69
2022/04/14 02:40:56;;;;;;;42.20;33.15;;;13.70;99.90;;;-146.41;100.00;57768.22;4998837;28;20136;-68
2022/04/14 02:43:23;;;;;;;43.05;33.85;;;13.70;99.90;;;-146.41;100.00;57768.22;4999264;28;20141;-70
2022/04/14 02:45:50;;;;;;;44.80;33.63;;;13.70;99.90;;;-146.41;100.00;57768.22;4997663;28;20080;-69
2022/04/14 02:48:17;;;;;;;39.70;31.70;;;13.70;99.90;;;-146.41;100.00;57768.22;4999548;28;20058;-68
2022/04/14 02:50:45;;;;;;;40.05;32.50;;;13.70;99.90;;;-146.41;100.00;57768.22;4998640;28;20088;-69
2022/04/14 02:53:12;;;;;;;39.90;31.67;;;13.60;99.90;;;-146.41;100.00;57768.22;5004943;28;20133;-68
2022/04/14 02:55:41;;;;;;;44.33;32.30;;;13.60;99.90;;;-146.41;100.00;57768.22;4987944;28;20054;-69
2022/04/14 02:58:08;;;;;;;45.53;32.70;;;13.50;99.90;;;-146.41;100.00;57768.22;5015692;28;20061;-70
2022/04/14 03:00:36;;;;;;;41.45;30.58;;;13.40;99.90;;;-146.41;100.00;57768.22;5002464;28;20101;-71
2022/04/14 03:03:03;;;;;;;39.97;29.77;;;13.40;99.90;;;-146.41;100.00;57768.22;4998601;28;20050;-69
2022/04/14 03:05:31;;;;;;;43.80;31.58;;;13.40;99.90;;;-146.41;100.00;57768.22;4998479;28;20122;-69
2022/04/14 03:07:58;;;;;;;45.83;35.35;;;13.30;99.90;;;-146.41;100.00;57768.22;5001165;28;20456;-69
2022/04/14 03:10:25;;;;;;;48.97;34.90;;;13.20;99.90;;;-146.41;100.00;57768.22;4989449;28;20221;-70
2022/04/14 03:12:52;;;;;;;42.40;33.35;;;13.20;99.90;;;-146.41;100.00;57768.22;4984390;28;20085;-69
2022/04/14 03:15:19;;;;;;;42.47;28.58;;;13.20;99.90;;;-146.41;100.00;57768.22;5003152;28;20143;-70
2022/04/14 03:17:49;;;;;;;41.10;32.15;;;13.20;99.90;;;-146.41;100.00;57768.22;5008491;28;20084;-69
2022/04/14 03:20:17;;;;;;;46.58;32.50;;;13.20;99.90;;;-146.41;100.00;57768.22;5002105;28;20129;-68
2022/04/14 03:22:44;;;;;;;50.42;32.50;;;13.10;99.90;;;-146.41;100.00;57768.22;5001635;28;20050;-69
2022/04/14 03:25:16;;;;;;;45.50;34.47;;;13.10;99.90;;;-146.41;100.00;57768.22;5005620;28;20081;-69
2022/04/14 03:27:43;;;;;;;44.33;32.53;;;13.10;99.90;;;-146.41;100.00;57768.22;5001164;28;20447;-69
2022/04/14 03:30:11;;;;;;;47.47;34.33;;;13.10;99.90;;;-146.41;100.00;57768.22;5002154;28;20047;-69
2022/04/14 03:32:46;;;;;;;45.33;33.65;;;13.10;99.90;;;-146.41;100.00;57768.22;5001398;28;20534;-70
2022/04/14 03:35:14;;;;;;;46.45;34.10;;;13.10;99.90;;;-146.41;100.00;57768.22;4985933;28;20116;-69
2022/04/14 03:37:43;;;;;;;42.33;32.10;;;13.00;99.90;;;-146.41;100.00;57768.22;5004498;28;20124;-70
2022/04/14 03:40:11;;;;;;;46.88;31.02;;;12.90;99.90;;;-146.41;100.00;57768.22;5000086;28;20093;-69
2022/04/14 03:42:38;;;;;;;38.90;28.75;;;12.90;99.90;;;-146.41;100.00;57768.22;5005182;28;20563;-69
2022/04/14 03:45:07;;;;;;;39.28;28.65;;;12.90;99.90;;;-146.41;100.00;57768.22;4998702;28;20142;-70
2022/04/14 03:47:34;;;;;;;38.60;30.00;;;13.00;99.90;;;-146.41;100.00;57768.22;5004968;28;20085;-69
2022/04/14 03:50:02;;;;;;;40.58;29.95;;;13.00;99.90;;;-146.41;100.00;57768.22;4984288;28;20073;-69
2022/04/14 03:52:29;;;;;;;45.58;30.20;;;13.00;99.90;;;-146.41;100.00;57768.22;5003082;28;20058;-70
2022/04/14 03:54:57;;;;;;;41.85;31.35;;;13.00;99.90;;;-146.41;100.00;57768.22;5000953;28;20061;-69
2022/04/14 03:57:25;;;;;;;43.65;32.50;;;12.90;99.90;;;-146.41;100.00;57768.22;5006365;28;20049;-69
2022/04/14 03:59:52;;;;;;;47.50;31.67;;;12.90;99.90;;;-146.41;100.00;57768.22;4998668;28;20084;-69
2022/04/14 04:02:19;;;;;;;45.55;33.17;;;13.00;99.90;;;-146.41;100.00;57768.22;4989678;28;20081;-70
2022/04/14 04:04:47;;;;;;;46.42;33.42;;;12.90;99.90;;;-146.41;100.00;57768.22;5004287;28;20053;-69
2022/04/14 04:07:14;;;;;;;46.30;32.10;;;12.90;99.90;;;-146.41;100.00;57768.22;5000061;28;20516;-69
2022/04/14 04:09:41;;;;;;;48.00;33.60;;;12.90;99.90;;;-146.41;100.00;57768.22;5004094;28;20554;-69
2022/04/14 04:12:09;;;;;;;44.00;31.42;;;12.90;99.90;;;-146.41;100.00;57768.22;4985032;28;20401;-69
2022/04/14 04:14:36;;;;;;;45.53;32.83;;;12.90;99.90;;;-146.41;100.00;57768.22;4999683;28;20727;-70
2022/04/14 04:17:04;;;;;;;42.47;31.02;;;12.90;99.90;;;-146.41;100.00;57768.22;5005224;28;20061;-69
2022/04/14 04:19:32;;;;;;;47.30;31.60;;;12.90;99.90;;;-146.41;100.00;57768.22;5001945;28;20042;-69
2022/04/14 04:21:59;;;;;;;43.85;31.80;;;12.90;99.90;;;-146.41;100.00;57768.22;5001771;28;20077;-69
2022/04/14 04:24:26;;;;;;;46.55;31.83;;;12.80;99.90;;;-146.41;100.00;57768.22;4998396;28;20475;-68
2022/04/14 04:26:54;;;;;;;42.33;30.92;;;12.90;99.90;;;-146.41;100.00;57768.22;5003738;28;20100;-70
2022/04/14 04:29:21;;;;;;;47.85;31.42;;;12.80;99.90;;;-146.41;100.00;57768.22;4999445;28;20129;-70
2022/04/14 04:31:48;;;;;;;46.78;31.70;;;12.80;99.90;;;-146.41;100.00;57768.22;5005956;28;20080;-70
2022/04/14 04:34:15;;;;;;;42.58;32.53;;;12.80;99.90;;;-146.41;100.00;57768.22;4999724;28;20073;-70
2022/04/14 04:36:42;;;;;;;41.72;31.10;;;12.90;99.90;;;-146.41;100.00;57768.22;5000884;28;20205;-70
2022/04/14 04:39:09;;;;;;;43.85;30.48;;;12.90;99.90;;;-146.41;100.00;57768.22;4998834;28;20056;-69
2022/04/14 04:41:37;;;;;;;43.70;29.88;;;12.90;99.90;;;-146.41;100.00;57768.22;5001500;28;20098;-69
2022/04/14 04:44:04;;;;;;;41.97;31.23;;;12.80;99.90;;;-146.41;100.00;57768.22;4986062;28;20141;-69
2022/04/14 04:46:32;;;;;;;44.83;29.75;;;12.90;99.90;;;-146.41;100.00;57768.22;5002529;28;20046;-69
2022/04/14 04:48:59;;;;;;;38.20;28.75;;;12.90;99.90;;;-146.41;100.00;57768.22;4999910;28;20133;-70
2022/04/14 04:51:26;;;;;;;46.03;30.67;;;12.90;99.90;;;-146.41;100.00;57768.22;5004318;28;20149;-69
2022/04/14 04:53:54;;;;;;;41.72;28.85;;;12.90;99.90;;;-146.41;100.00;57768.22;4999634;28;20088;-69
2022/04/14 04:56:21;;;;;;;47.53;30.92;;;12.80;99.90;;;-146.41;100.00;57768.22;5003404;28;20141;-69
2022/04/14 04:58:48;;;;;;;41.03;28.40;;;12.90;99.90;;;-146.41;100.00;57768.22;5000728;28;20168;-70
2022/04/14 05:01:15;;;;;;;42.80;28.85;;;12.90;99.90;;;-146.41;100.00;57768.22;4997519;28;20125;-69
2022/04/14 05:03:42;;;;;;;46.17;29.90;;;12.90;99.90;;;-146.41;100.00;57768.22;5007832;28;20081;-70
2022/04/14 05:06:09;;;;;;;42.47;29.77;;;12.90;99.90;;;-146.41;100.00;57768.22;5002286;28;20836;-70
2022/04/14 05:08:37;;;;;;;40.17;27.73;;;13.00;99.90;;;-146.41;100.00;57768.22;5006924;28;20046;-70
2022/04/14 05:11:07;;;;;;;40.97;27.95;;;12.90;99.90;;;-146.41;100.00;57768.22;5002304;28;20104;-69
2022/04/14 05:13:35;;;;;;;36.60;28.02;;;12.90;99.90;;;-146.41;100.00;57768.22;5002493;28;20054;-69
2022/04/14 05:16:04;;;;;;;36.65;26.75;;;12.90;99.90;;;-146.41;100.00;57768.22;5002430;28;20430;-70
2022/04/14 05:18:35;;;;;;;37.03;25.65;;;13.00;99.90;;;-146.41;100.00;57768.22;5004431;28;20465;-69
2022/04/14 05:21:02;;;;;;;39.72;27.60;;;13.00;99.90;;;-146.41;100.00;57768.22;4999196;28;20504;-69
2022/04/14 05:23:29;;;;;;;38.42;24.95;;;13.00;99.90;;;-146.41;100.00;57768.22;5002493;28;20584;-70
2022/04/14 05:25:56;;;;;;;37.33;26.00;;;13.00;99.90;;;-146.41;100.00;57768.22;5003090;28;20141;-70
2022/04/14 05:28:23;;;;;;;37.53;26.77;;;13.10;99.90;;;-146.41;100.00;57768.22;5003127;28;20053;-70
2022/04/14 05:30:50;;;;;;;38.42;25.30;;;13.10;99.90;;;-146.41;100.00;57768.22;5004056;28;20137;-68
2022/04/14 05:33:18;;;;;;;39.60;25.77;;;13.10;99.90;;;-146.41;100.00;57768.22;5002512;28;20042;-68
2022/04/14 05:35:45;;;;;;;38.60;25.42;;;13.10;99.90;;;-146.41;100.00;57768.22;5001600;28;20066;-70
2022/04/14 05:38:12;;;;;;;36.05;25.55;;;13.10;99.90;;;-146.41;100.00;57768.22;4977936;28;20073;-69
2022/04/14 05:40:41;;;;;;;40.88;24.63;;;13.20;99.90;;;-146.41;100.00;57768.22;5001007;28;20495;-69
2022/04/14 05:43:29;;;;;;;36.60;24.58;;;13.20;99.90;;;-146.41;100.00;57768.22;5003206;28;20073;-69
2022/04/14 05:45:57;;;;;;;32.83;22.30;;;13.20;99.90;;;-146.41;100.00;57768.22;5004442;28;20057;-70
2022/04/14 05:48:24;;;;;;;42.40;24.63;;;13.30;99.90;;;-146.41;100.00;57768.22;5003300;28;20073;-69
2022/04/14 05:50:51;;;;;;;35.88;23.50;;;13.30;99.90;;;-146.41;100.00;57768.22;5000642;28;20050;-70
2022/04/14 05:53:28;;;;;;;35.83;22.70;;;13.30;99.90;;;-146.41;100.00;57768.22;4997593;28;20054;-70
2022/04/14 05:55:55;;;;;;;34.00;22.30;;;13.30;99.90;;;-146.41;100.00;57768.22;5007101;28;20136;-70
2022/04/14 05:58:22;;;;;;;30.13;20.80;;;13.30;99.90;;;-146.41;100.00;57768.22;5000729;28;20583;-70
2022/04/14 06:00:49;;;;;;;35.17;22.23;;;13.40;99.90;;;-146.41;100.00;57768.22;4999591;28;20143;-69
2022/04/14 06:03:16;;;;;;;31.88;23.63;;;13.30;99.90;;;-146.41;100.00;57768.22;5000447;28;20101;-69
2022/04/14 06:05:43;;;;;;;32.90;23.95;;;13.30;99.90;;;-146.41;100.00;57768.22;4999234;28;20137;-70
2022/04/14 06:08:10;;;;;;;31.27;22.25;;;13.30;99.90;;;-146.41;100.00;57768.22;5000151;28;20052;-69
2022/04/14 06:10:38;;;;;;;29.50;21.33;;;13.30;99.90;;;-146.41;100.00;57768.22;4999567;28;20077;-70
2022/04/14 06:13:05;;;;;;;34.20;23.50;;;13.30;99.90;;;-146.41;100.00;57768.22;5005675;28;20072;-68
2022/04/14 06:15:33;;;;;;;35.92;23.42;;;13.30;99.90;;;-146.41;100.00;57768.22;4999224;28;20073;-68
2022/04/14 06:18:00;;;;;;;32.28;22.90;;;13.30;99.90;;;-146.41;100.00;57768.22;5004455;28;20076;-69
2022/04/14 06:20:27;;;;;;;34.47;23.00;;;13.40;99.90;;;-146.41;100.00;57768.22;5014352;28;20051;-69
2022/04/14 06:22:56;;;;;;;34.08;22.95;;;13.40;99.90;;;-146.41;100.00;57768.22;5004410;28;20133;-70
2022/04/14 06:25:23;;;;;;;36.40;22.98;;;13.40;99.90;;;-146.41;100.00;57768.22;5000855;28;20060;-69
2022/04/14 06:27:52;;;;;;;32.80;22.58;;;13.50;99.90;;;-146.41;100.00;57768.22;5003965;28;20240;-68
2022/04/14 06:30:20;;;;;;;32.83;21.70;;;13.50;99.90;;;-146.41;100.00;57768.22;5001334;28;20538;-70
2022/04/14 06:33:04;;;;;;;34.83;22.30;;;13.50;99.90;;;-146.41;100.00;57768.22;4997274;28;20116;-69
2022/04/14 06:35:32;;;;;;;35.38;23.85;;;13.60;99.90;;;-146.41;100.00;57768.22;5001874;28;20097;-69
2022/04/14 06:37:59;;;;;;;32.20;22.17;;;13.60;99.90;;;-146.41;100.00;57768.22;5000686;28;20050;-68
2022/04/14 06:40:27;;;;;;;34.65;22.58;;;13.70;99.90;;;-146.41;100.00;57768.22;4997748;28;20119;-69
2022/04/14 06:43:00;;;;;;;31.60;21.75;;;13.90;99.90;;;-146.41;100.00;57768.22;5001768;28;20038;-68
2022/04/14 06:45:30;;;;;;;35.15;22.17;;;14.10;99.90;;;-146.41;100.00;57768.22;4997911;28;20046;-69
2022/04/14 06:47:58;;;;;;;31.60;21.75;;;14.20;99.90;;;-146.41;100.00;57768.22;5000680;28;20217;-69
2022/04/14 06:50:26;;;;;;;35.88;24.63;;;14.30;99.90;;;-146.41;100.00;57768.22;4995660;28;20055;-69
2022/04/14 06:52:53;;;;;;;39.28;22.92;;;14.30;99.90;;;-146.41;100.00;57768.22;4999823;28;20073;-69
2022/04/14 06:55:23;;;;;;;33.67;20.85;;;14.40;99.90;;;-146.41;100.00;57768.22;4995702;28;20085;-69
2022/04/14 06:57:51;;;;;;;37.05;24.60;;;14.60;99.90;;;-146.41;100.00;57768.22;4998219;28;20087;-69
2022/04/14 07:00:19;;;;;;;32.92;23.25;;;14.70;99.90;;;-146.41;100.00;57768.22;5002975;28;20526;-68
2022/04/14 07:02:53;;;;;;;39.58;22.85;;;14.80;99.90;;;-146.41;100.00;57768.22;5002489;28;20144;-69
2022/04/14 07:05:25;;;;;;;36.80;23.55;;;14.90;99.90;;;-146.41;100.00;57768.22;5001483;28;20599;-70
2022/04/14 07:07:52;;;;;;;30.88;22.08;;;15.00;99.90;;;-146.41;100.00;57768.22;4998079;28;20184;-70
2022/04/14 07:10:19;;;;;;;33.35;21.73;;;15.10;99.90;;;-146.41;100.00;57768.22;5001149;28;20058;-69
2022/04/14 07:12:46;;;;;;;36.03;23.95;;;15.20;99.90;;;-146.41;100.00;57768.22;4994067;28;20081;-70
2022/04/14 07:15:14;;;;;;;35.03;22.95;;;15.30;99.90;;;-146.41;100.00;57768.22;5000563;28;20084;-69
2022/04/14 07:17:41;;;;;;;36.83;22.83;;;15.40;99.90;;;-146.41;100.00;57768.22;4980657;28;20129;-69
2022/04/14 07:20:09;;;;;;;35.38;23.75;;;15.40;99.90;;;-146.41;100.00;57768.22;4990849;28;20034;-69
2022/04/14 07:22:52;;;;;;;31.05;23.08;;;15.30;99.90;;;-146.41;100.00;57768.22;4994660;28;20054;-69
2022/04/14 07:25:24;;;;;;;30.98;20.23;;;15.40;99.90;;;-146.41;100.00;57768.22;4998010;28;20488;-70
2022/04/14 07:27:52;;;;;;;29.50;20.25;;;15.40;99.90;;;-146.41;100.00;57768.22;4995556;28;20547;-70
2022/04/14 07:30:20;;;;;;;32.55;21.60;;;15.60;99.90;;;-146.41;100.00;57768.22;5000156;28;20045;-69
2022/04/14 07:32:48;;;;;;;29.45;20.55;;;15.60;99.90;;;-146.41;100.00;57768.22;4996081;28;20046;-69
2022/04/14 07:35:16;;;;;;;26.85;18.80;;;15.80;99.90;;;-146.41;100.00;57768.22;4997975;28;20134;-69
2022/04/14 07:37:45;;;;;;;26.80;18.35;;;15.90;99.90;;;-146.41;100.00;57768.22;4994121;28;20068;-69
2022/04/14 07:40:12;;;;;;;28.13;19.00;;;16.10;99.90;;;-146.41;100.00;57768.22;4995821;28;20116;-69
2022/04/14 07:42:42;;;;;;;31.00;20.98;;;16.20;99.90;;;-146.41;100.00;57768.22;4993941;28;20073;-70
2022/04/14 07:45:12;;;;;;;32.08;19.77;;;16.10;99.90;;;-146.41;100.00;57768.22;4997097;28;20049;-69
2022/04/14 07:47:41;;;;;;;33.45;22.75;;;16.10;99.90;;;-146.41;100.00;57768.22;4999218;28;20050;-69
2022/04/14 07:50:15;;;;;;;29.33;20.67;;;16.00;99.90;;;-146.41;100.00;57768.22;4983230;28;20099;-69
2022/04/14 07:52:54;;;;;;;28.67;20.40;;;16.10;99.90;;;-146.41;100.00;57768.22;5000773;28;20471;-69
2022/04/14 07:55:28;;;;;;;32.85;21.25;;;16.10;99.90;;;-146.41;100.00;57768.22;4982633;28;20058;-69
2022/04/14 07:58:01;;;;;;;34.08;20.98;;;16.20;99.90;;;-146.41;100.00;57768.22;5000044;28;20137;-69
2022/04/14 08:00:29;;;;;;;28.15;18.90;;;16.20;99.90;;;-146.41;100.00;57768.22;5000577;28;20107;-69
2022/04/14 08:03:02;;;;;;;28.48;20.08;;;16.30;99.90;;;-146.41;100.00;57768.22;4999761;28;20096;-70
2022/04/14 08:05:41;;;;;;;30.90;20.73;;;16.40;99.90;;;-146.41;100.00;57768.22;5000829;28;20082;-70
2022/04/14 08:08:12;;;;;;;34.08;21.73;;;16.60;99.90;;;-146.41;100.00;57768.22;5000498;28;20045;-69
2022/04/14 08:10:41;;;;;;;26.50;19.45;;;16.60;99.90;;;-146.41;100.00;57768.22;4998534;28;20041;-69
2022/04/14 08:13:09;;;;;;;31.55;20.80;;;16.50;99.90;;;-146.41;100.00;57768.22;5007280;28;20057;-70
2022/04/14 08:15:36;;;;;;;35.53;21.60;;;16.60;99.90;;;-146.41;100.00;57768.22;4997128;28;20628;-69
2022/04/14 08:18:06;;;;;;;27.67;19.45;;;16.80;99.90;;;-146.41;100.00;57768.22;4984484;28;20069;-70
2022/04/14 08:20:34;;;;;;;28.75;19.10;;;16.90;99.90;;;-146.41;100.00;57768.22;4996105;28;20140;-70
2022/04/14 08:23:03;;;;;;;24.05;18.02;;;17.10;99.90;;;-146.41;100.00;57768.22;4994588;28;20050;-69
2022/04/14 08:25:33;;;;;;;28.60;18.60;;;17.40;99.90;;;-146.41;100.00;57768.22;5005069;28;20081;-70
2022/04/14 08:28:05;;;;;;;30.75;20.60;;;17.60;99.90;;;-146.41;100.00;57768.22;5016146;28;20046;-70
2022/04/14 08:30:36;;;;;;;28.90;19.50;;;17.00;99.90;;;-146.41;100.00;57768.22;5000637;28;20057;-69
2022/04/14 08:33:07;;;;;;;28.77;19.63;;;17.10;99.90;;;-146.41;100.00;57768.22;5004440;28;20077;-69
2022/04/14 08:35:35;;;;;;;28.30;20.02;;;17.10;99.90;;;-146.41;100.00;57768.22;4999723;28;20214;-70
2022/04/14 08:38:09;;;;;;;27.88;19.63;;;17.10;99.90;;;-146.41;100.00;57768.22;4998681;28;20520;-69
2022/04/14 08:40:39;;;;;;;27.20;17.42;;;17.60;99.90;;;-146.41;100.00;57768.22;4983302;28;20046;-70
2022/04/14 08:43:33;;;;;;;24.30;18.23;;;17.90;99.90;;;-146.41;100.00;57768.22;4997864;28;20046;-70
2022/04/14 08:46:02;;;;;;;25.60;17.77;;;18.20;99.90;;;-146.41;100.00;57768.22;4993466;28;20570;-69
2022/04/14 08:48:30;;;;;;;25.52;17.58;;;18.60;99.90;;;-146.41;100.00;57768.22;5000216;28;20117;-69
2022/04/14 08:50:57;;;;;;;25.60;16.80;;;18.70;99.90;;;-146.41;100.00;57768.22;5001419;28;20136;-69
2022/04/14 08:53:26;;;;;;;23.50;17.33;;;18.50;99.90;;;-146.41;100.00;57768.22;5002129;28;20054;-70
2022/04/14 08:55:54;;;;;;;21.10;14.40;;;18.50;99.90;;;-146.41;100.00;57768.22;5000724;28;20131;-69
2022/04/14 08:58:26;;;;;;;24.23;16.95;;;18.80;99.90;;;-146.41;100.00;57768.22;4997995;28;20488;-71
2022/04/14 09:00:57;;;;;;;27.30;17.27;;;18.60;99.90;;;-146.41;100.00;57768.22;4999124;28;20046;-69
2022/04/14 09:03:44;;;;;;;25.98;16.90;;;18.20;99.90;;;-146.41;100.00;57768.22;4985854;28;20420;-71
2022/04/14 09:06:13;;;;;;;23.50;14.98;;;18.00;99.90;;;-146.41;100.00;57768.22;4995745;28;20449;-69
2022/04/14 09:08:40;;;;;;;22.15;14.75;;;18.30;99.90;;;-146.41;100.00;57768.22;4999430;28;20092;-69
2022/04/14 09:11:10;;;;;;;20.35;14.57;;;18.50;99.90;;;-146.41;100.00;57768.22;4999110;28;20085;-70
2022/04/14 09:13:38;;;;;;;24.13;14.60;;;18.80;99.90;;;-146.41;100.00;57768.22;4983542;28;20065;-69
2022/04/14 09:16:05;;;;;;;20.02;14.65;;;18.50;99.90;;;-146.41;100.00;57768.22;4996148;28;20132;-69
2022/04/14 09:18:33;;;;;;;21.58;13.80;;;18.80;99.90;;;-146.41;100.00;57768.22;4998630;28;20417;-69
2022/04/14 09:21:06;;;;;;;19.17;14.15;;;18.80;99.90;;;-146.41;100.00;57768.22;5000861;28;20088;-69
2022/04/14 09:23:36;;;;;;;20.25;12.63;;;18.90;99.90;;;-146.41;100.00;57768.22;4999149;28;20058;-70
2022/04/14 09:26:03;;;;;;;17.15;13.30;;;18.90;99.90;;;-146.41;100.00;57768.22;4999073;28;20423;-70
2022/04/14 09:28:30;;;;;;;22.02;14.43;;;19.10;99.90;;;-146.41;100.00;57768.22;4994256;28;20077;-69
2022/04/14 09:31:12;;;;;;;19.42;12.70;;;18.90;99.90;;;-146.41;100.00;57768.22;4999917;28;20161;-69
2022/04/14 09:33:46;;;;;;;19.50;12.85;;;18.90;99.90;;;-146.41;100.00;57768.22;5000738;28;20062;-69
2022/04/14 09:36:23;;;;;;;18.73;12.27;;;19.10;99.90;;;-146.41;100.00;57768.22;5004553;28;20081;-69
2022/04/14 09:39:06;;;;;;;16.80;11.35;;;19.30;99.90;;;-146.41;100.00;57768.22;5000827;28;20061;-69
2022/04/14 09:41:42;;;;;;;17.73;12.15;;;19.40;99.90;;;-146.41;100.00;57768.22;5000436;28;20058;-69
2022/04/14 09:44:11;;;;;;;15.80;10.48;;;19.40;99.90;;;-146.41;100.00;57768.22;4989601;28;20046;-69
2022/04/14 09:46:45;;;;;;;13.20;9.73;;;19.50;99.90;;;-146.41;100.00;57768.22;4999518;28;20082;-69
2022/04/14 09:49:14;;;;;;;12.70;8.60;;;19.50;99.90;;;-146.41;100.00;57768.22;5005167;28;20128;-69
2022/04/14 09:51:48;;;;;;;17.35;10.93;;;19.40;99.90;;;-146.41;100.00;57768.22;5003343;28;20140;-69
2022/04/14 09:54:19;;;;;;;15.18;10.18;;;19.50;99.90;;;-146.41;100.00;57768.22;4998078;28;20074;-71